sensor_id;sensor_type;location;lat;lon;timestamp;pressure;altitude;pressure_sealevel;temperature;humidity
28630;BME280;15817;42.130;24.762;2022-09-21T00:02:07;99911.25;;;16.72;48.77
28630;BME280;15817;42.130;24.762;2022-09-21T00:04:33;99908.44;;;16.75;48.97
28630;BME280;15817;42.130;24.762;2022-09-21T00:06:58;99909.03;;;16.85;49.03
28630;BME280;15817;42.130;24.762;2022-09-21T00:09:24;99912.69;;;16.84;49.14
28630;BME280;15817;42.130;24.762;2022-09-21T00:11:50;99911.72;;;16.85;49.00
28630;BME280;15817;42.130;24.762;2022-09-21T00:14:19;99910.97;;;16.81;49.39
28630;BME280;15817;42.130;24.762;2022-09-21T00:16:44;99913.69;;;16.80;49.58
28630;BME280;15817;42.130;24.762;2022-09-21T00:19:10;99919.06;;;16.80;49.56
28630;BME280;15817;42.130;24.762;2022-09-21T00:21:37;99911.03;;;16.78;49.57
28630;BME280;15817;42.130;24.762;2022-09-21T00:24:03;99915.63;;;16.75;49.69
28630;BME280;15817;42.130;24.762;2022-09-21T00:26:30;99918.25;;;16.76;49.93
28630;BME280;15817;42.130;24.762;2022-09-21T00:28:58;99920.94;;;16.76;50.06
28630;BME280;15817;42.130;24.762;2022-09-21T00:31:25;99922.91;;;16.71;49.99
28630;BME280;15817;42.130;24.762;2022-09-21T00:33:52;99928.03;;;16.79;50.02
28630;BME280;15817;42.130;24.762;2022-09-21T00:36:20;99929.81;;;16.80;49.90
28630;BME280;15817;42.130;24.762;2022-09-21T00:38:57;99927.13;;;16.80;50.17
28630;BME280;15817;42.130;24.762;2022-09-21T00:41:25;99926.47;;;16.72;49.97
28630;BME280;15817;42.130;24.762;2022-09-21T00:44:28;99919.44;;;16.68;49.78
28630;BME280;15817;42.130;24.762;2022-09-21T00:46:57;99917.69;;;16.65;49.62
28630;BME280;15817;42.130;24.762;2022-09-21T00:49:27;99918.72;;;16.61;49.40
28630;BME280;15817;42.130;24.762;2022-09-21T00:51:54;99919.56;;;16.61;49.27
28630;BME280;15817;42.130;24.762;2022-09-21T00:54:27;99916.88;;;16.63;49.12
28630;BME280;15817;42.130;24.762;2022-09-21T00:56:54;99917.91;;;16.57;49.36
28630;BME280;15817;42.130;24.762;2022-09-21T00:59:21;99927.69;;;16.60;49.53
28630;BME280;15817;42.130;24.762;2022-09-21T01:01:47;99917.75;;;16.63;49.34
28630;BME280;15817;42.130;24.762;2022-09-21T01:04:14;99924.88;;;16.64;49.31
28630;BME280;15817;42.130;24.762;2022-09-21T01:06:41;99918.66;;;16.62;49.24
28630;BME280;15817;42.130;24.762;2022-09-21T01:09:08;99917.75;;;16.63;48.87
28630;BME280;15817;42.130;24.762;2022-09-21T01:11:50;99923.13;;;16.63;49.03
28630;BME280;15817;42.130;24.762;2022-09-21T01:28:03;99903.59;;;16.57;48.86
28630;BME280;15817;42.130;24.762;2022-09-21T01:30:36;99899.13;;;16.57;49.05
28630;BME280;15817;42.130;24.762;2022-09-21T01:35:41;99893.78;;;16.56;49.19
28630;BME280;15817;42.130;24.762;2022-09-21T01:38:20;99884.97;;;16.51;49.16
28630;BME280;15817;42.130;24.762;2022-09-21T01:40:54;99884.22;;;16.47;49.31
28630;BME280;15817;42.130;24.762;2022-09-21T01:43:27;99881.41;;;16.50;49.40
28630;BME280;15817;42.130;24.762;2022-09-21T01:45:57;99888.69;;;16.47;49.22
28630;BME280;15817;42.130;24.762;2022-09-21T01:48:30;99880.63;;;16.47;49.20
28630;BME280;15817;42.130;24.762;2022-09-21T01:51:02;99878.91;;;16.44;49.35
28630;BME280;15817;42.130;24.762;2022-09-21T01:53:36;99881.72;;;16.40;49.68
28630;BME280;15817;42.130;24.762;2022-09-21T01:56:08;99880.06;;;16.36;49.99
28630;BME280;15817;42.130;24.762;2022-09-21T01:58:49;99887.09;;;16.40;49.95
28630;BME280;15817;42.130;24.762;2022-09-21T02:01:20;99883.50;;;16.41;49.93
28630;BME280;15817;42.130;24.762;2022-09-21T02:04:12;99887.97;;;16.40;49.96
28630;BME280;15817;42.130;24.762;2022-09-21T02:06:41;99884.41;;;16.40;49.81
28630;BME280;15817;42.130;24.762;2022-09-21T02:09:08;99876.31;;;16.41;49.75
28630;BME280;15817;42.130;24.762;2022-09-21T02:11:35;99889.75;;;16.41;49.75
28630;BME280;15817;42.130;24.762;2022-09-21T02:14:10;99875.63;;;16.35;49.75
28630;BME280;15817;42.130;24.762;2022-09-21T02:16:41;99892.41;;;16.41;49.82
28630;BME280;15817;42.130;24.762;2022-09-21T02:24:40;99893.31;;;16.42;49.87
28630;BME280;15817;42.130;24.762;2022-09-21T02:30:06;99887.00;;;16.43;50.12
28630;BME280;15817;42.130;24.762;2022-09-21T02:43:39;99890.00;;;16.32;50.49
28630;BME280;15817;42.130;24.762;2022-09-21T02:46:34;99890.00;;;16.32;50.41
28630;BME280;15817;42.130;24.762;2022-09-21T02:49:06;99890.06;;;16.30;50.46
28630;BME280;15817;42.130;24.762;2022-09-21T02:51:43;99888.34;;;16.28;50.68
28630;BME280;15817;42.130;24.762;2022-09-21T02:54:13;99904.41;;;16.29;50.56
28630;BME280;15817;42.130;24.762;2022-09-21T02:56:41;99890.13;;;16.27;50.46
28630;BME280;15817;42.130;24.762;2022-09-21T02:59:09;99900.94;;;16.26;50.51
28630;BME280;15817;42.130;24.762;2022-09-21T03:01:35;99891.19;;;16.22;50.70
28630;BME280;15817;42.130;24.762;2022-09-21T03:04:04;99894.81;;;16.21;50.55
28630;BME280;15817;42.130;24.762;2022-09-21T03:06:29;99899.22;;;16.23;50.73
28630;BME280;15817;42.130;24.762;2022-09-21T03:08:56;99892.25;;;16.16;50.65
28630;BME280;15817;42.130;24.762;2022-09-21T03:11:25;99898.50;;;16.17;50.80
28630;BME280;15817;42.130;24.762;2022-09-21T03:13:51;99899.38;;;16.17;51.11
28630;BME280;15817;42.130;24.762;2022-09-21T03:16:20;99906.72;;;16.11;51.00
28630;BME280;15817;42.130;24.762;2022-09-21T03:18:47;99901.31;;;16.12;51.47
28630;BME280;15817;42.130;24.762;2022-09-21T03:21:13;99899.59;;;16.10;51.53
28630;BME280;15817;42.130;24.762;2022-09-21T03:23:39;99908.53;;;16.10;51.63
28630;BME280;15817;42.130;24.762;2022-09-21T03:26:05;99912.16;;;16.08;51.71
28630;BME280;15817;42.130;24.762;2022-09-21T03:28:32;99905.00;;;16.08;51.57
28630;BME280;15817;42.130;24.762;2022-09-21T03:30:58;99911.47;;;16.01;52.26
28630;BME280;15817;42.130;24.762;2022-09-21T03:33:24;99911.47;;;16.01;52.31
28630;BME280;15817;42.130;24.762;2022-09-21T03:35:51;99912.31;;;16.03;52.38
28630;BME280;15817;42.130;24.762;2022-09-21T03:38:19;99914.94;;;16.05;52.41
28630;BME280;15817;42.130;24.762;2022-09-21T03:40:49;99923.97;;;16.02;52.78
28630;BME280;15817;42.130;24.762;2022-09-21T03:43:16;99914.19;;;16.00;52.82
28630;BME280;15817;42.130;24.762;2022-09-21T03:45:43;99912.47;;;15.97;53.14
28630;BME280;15817;42.130;24.762;2022-09-21T03:48:10;99914.22;;;15.98;52.95
28630;BME280;15817;42.130;24.762;2022-09-21T03:50:37;99916.91;;;15.98;53.25
28630;BME280;15817;42.130;24.762;2022-09-21T03:53:03;99916.16;;;15.93;53.39
28630;BME280;15817;42.130;24.762;2022-09-21T03:55:30;99910.00;;;15.89;53.74
28630;BME280;15817;42.130;24.762;2022-09-21T03:57:57;99913.47;;;15.93;53.86
28630;BME280;15817;42.130;24.762;2022-09-21T04:00:22;99925.03;;;15.95;53.95
28630;BME280;15817;42.130;24.762;2022-09-21T04:02:49;99917.94;;;15.92;54.08
28630;BME280;15817;42.130;24.762;2022-09-21T04:05:15;99918.91;;;15.91;54.00
28630;BME280;15817;42.130;24.762;2022-09-21T04:07:45;99917.91;;;15.94;54.03
28630;BME280;15817;42.130;24.762;2022-09-21T04:10:19;99916.94;;;15.97;54.26
28630;BME280;15817;42.130;24.762;2022-09-21T04:12:46;99920.56;;;15.96;53.95
28630;BME280;15817;42.130;24.762;2022-09-21T04:15:16;99916.91;;;15.98;53.88
28630;BME280;15817;42.130;24.762;2022-09-21T04:17:45;99916.94;;;15.97;53.86
28630;BME280;15817;42.130;24.762;2022-09-21T04:20:11;99926.69;;;16.01;53.75
28630;BME280;15817;42.130;24.762;2022-09-21T04:22:40;99925.00;;;15.97;53.90
28630;BME280;15817;42.130;24.762;2022-09-21T04:25:11;99926.78;;;15.96;54.06
28630;BME280;15817;42.130;24.762;2022-09-21T04:27:37;99924.09;;;15.98;53.89
28630;BME280;15817;42.130;24.762;2022-09-21T04:30:04;99931.28;;;15.96;54.17
28630;BME280;15817;42.130;24.762;2022-09-21T04:32:30;99933.97;;;15.96;54.04
28630;BME280;15817;42.130;24.762;2022-09-21T04:34:56;99925.91;;;15.96;54.11
28630;BME280;15817;42.130;24.762;2022-09-21T04:37:22;99935.66;;;16.00;54.02
28630;BME280;15817;42.130;24.762;2022-09-21T04:39:56;99928.53;;;15.99;53.88
28630;BME280;15817;42.130;24.762;2022-09-21T04:42:50;99930.44;;;15.93;53.78
28630;BME280;15817;42.130;24.762;2022-09-21T04:45:20;99928.66;;;15.92;53.89
28630;BME280;15817;42.130;24.762;2022-09-21T04:47:50;99926.88;;;15.93;53.58
28630;BME280;15817;42.130;24.762;2022-09-21T04:50:16;99934.78;;;15.99;53.63
28630;BME280;15817;42.130;24.762;2022-09-21T04:52:45;99927.66;;;15.98;54.02
28630;BME280;15817;42.130;24.762;2022-09-21T04:55:12;99941.91;;;16.00;53.94
28630;BME280;15817;42.130;24.762;2022-09-21T04:57:38;99939.34;;;15.96;53.93
28630;BME280;15817;42.130;24.762;2022-09-21T05:00:04;99933.00;;;15.98;53.84
28630;BME280;15817;42.130;24.762;2022-09-21T05:02:30;99930.31;;;15.98;54.05
28630;BME280;15817;42.130;24.762;2022-09-21T05:04:59;99928.53;;;15.99;54.25
28630;BME280;15817;42.130;24.762;2022-09-21T05:07:30;99931.03;;;16.05;54.17
28630;BME280;15817;42.130;24.762;2022-09-21T05:09:59;99939.03;;;16.06;54.20
28630;BME280;15817;42.130;24.762;2022-09-21T05:12:32;99936.47;;;16.03;54.53
28630;BME280;15817;42.130;24.762;2022-09-21T05:14:58;99938.38;;;15.98;54.44
28630;BME280;15817;42.130;24.762;2022-09-21T05:17:24;99933.97;;;15.96;54.53
28630;BME280;15817;42.130;24.762;2022-09-21T05:19:51;99940.09;;;16.01;54.84
28630;BME280;15817;42.130;24.762;2022-09-21T05:22:18;99937.34;;;16.04;54.92
28630;BME280;15817;42.130;24.762;2022-09-21T05:24:47;99932.06;;;16.01;54.81
28630;BME280;15817;42.130;24.762;2022-09-21T05:27:13;99924.09;;;15.98;54.97
28630;BME280;15817;42.130;24.762;2022-09-21T05:29:40;99933.78;;;16.03;56.05
28630;BME280;15817;42.130;24.762;2022-09-21T05:32:14;99930.81;;;16.14;55.96
28630;BME280;15817;42.130;24.762;2022-09-21T05:34:56;99929.00;;;16.14;55.41
28630;BME280;15817;42.130;24.762;2022-09-21T05:37:36;99935.19;;;16.16;54.90
28630;BME280;15817;42.130;24.762;2022-09-21T05:40:11;99925.59;;;16.08;55.00
28630;BME280;15817;42.130;24.762;2022-09-21T05:42:41;99927.38;;;16.07;54.51
28630;BME280;15817;42.130;24.762;2022-09-21T05:45:11;99929.28;;;16.04;54.15
28630;BME280;15817;42.130;24.762;2022-09-21T05:47:39;99931.13;;;16.02;54.35
28630;BME280;15817;42.130;24.762;2022-09-21T05:51:00;99934.47;;;16.10;54.71
28630;BME280;15817;42.130;24.762;2022-09-21T06:04:46;99939.72;;;16.14;55.44
28630;BME280;15817;42.130;24.762;2022-09-21T06:07:12;99950.47;;;16.14;55.81
28630;BME280;15817;42.130;24.762;2022-09-21T06:09:38;99948.75;;;16.12;56.21
28630;BME280;15817;42.130;24.762;2022-09-21T06:12:04;99951.44;;;16.12;56.23
28630;BME280;15817;42.130;24.762;2022-09-21T06:14:48;99951.53;;;16.07;56.26
28630;BME280;15817;42.130;24.762;2022-09-21T06:17:17;99939.78;;;16.13;56.15
28630;BME280;15817;42.130;24.762;2022-09-21T06:19:43;99949.41;;;16.20;56.07
28630;BME280;15817;42.130;24.762;2022-09-21T06:22:08;99947.63;;;16.19;56.28
28630;BME280;15817;42.130;24.762;2022-09-21T06:24:46;99947.63;;;16.19;56.44
28630;BME280;15817;42.130;24.762;2022-09-21T06:27:12;99956.50;;;16.22;56.34
28630;BME280;15817;42.130;24.762;2022-09-21T06:29:38;99948.53;;;16.19;56.21
28630;BME280;15817;42.130;24.762;2022-09-21T06:32:03;99943.13;;;16.21;55.89
28630;BME280;15817;42.130;24.762;2022-09-21T06:34:32;99937.72;;;16.22;55.87
28630;BME280;15817;42.130;24.762;2022-09-21T06:37:11;99945.56;;;16.28;55.18
28630;BME280;15817;42.130;24.762;2022-09-21T06:39:53;99939.50;;;16.22;55.09
28630;BME280;15817;42.130;24.762;2022-09-21T06:42:39;99946.66;;;16.23;54.87
28630;BME280;15817;42.130;24.762;2022-09-21T06:45:05;99944.91;;;16.20;54.66
28630;BME280;15817;42.130;24.762;2022-09-21T06:47:45;99946.69;;;16.21;54.51
28630;BME280;15817;42.130;24.762;2022-09-21T06:50:14;99940.34;;;16.24;54.65
28630;BME280;15817;42.130;24.762;2022-09-21T06:52:40;99957.38;;;16.23;54.76
28630;BME280;15817;42.130;24.762;2022-09-21T06:55:11;99951.34;;;16.15;54.82
28630;BME280;15817;42.130;24.762;2022-09-21T06:57:38;99958.53;;;16.14;55.06
28630;BME280;15817;42.130;24.762;2022-09-21T07:00:08;99961.06;;;16.19;54.99
28630;BME280;15817;42.130;24.762;2022-09-21T07:02:34;99966.25;;;16.26;55.16
28630;BME280;15817;42.130;24.762;2022-09-21T07:05:03;99964.31;;;16.30;54.75
28630;BME280;15817;42.130;24.762;2022-09-21T07:07:38;99972.06;;;16.41;53.89
28630;BME280;15817;42.130;24.762;2022-09-21T07:10:09;99967.22;;;16.55;53.66
28630;BME280;15817;42.130;24.762;2022-09-21T07:12:36;99970.78;;;16.55;53.58
28630;BME280;15817;42.130;24.762;2022-09-21T07:15:10;99964.59;;;16.52;53.05
28630;BME280;15817;42.130;24.762;2022-09-21T07:17:39;99970.69;;;16.58;52.79
28630;BME280;15817;42.130;24.762;2022-09-21T07:20:07;99970.50;;;16.66;51.91
28630;BME280;15817;42.130;24.762;2022-09-21T07:22:34;99958.72;;;16.72;51.84
28630;BME280;15817;42.130;24.762;2022-09-21T07:25:00;99965.66;;;16.79;52.26
28630;BME280;15817;42.130;24.762;2022-09-21T07:27:28;99965.59;;;16.80;52.22
28630;BME280;15817;42.130;24.762;2022-09-21T07:29:54;99957.19;;;16.92;51.88
28630;BME280;15817;42.130;24.762;2022-09-21T07:32:20;99955.69;;;17.12;51.67
28630;BME280;15817;42.130;24.762;2022-09-21T07:34:46;99956.25;;;17.21;51.33
28630;BME280;15817;42.130;24.762;2022-09-21T07:37:15;99952.47;;;17.28;50.76
28630;BME280;15817;42.130;24.762;2022-09-21T07:39:41;99959.16;;;17.71;49.62
28630;BME280;15817;42.130;24.762;2022-09-21T07:42:07;99961.47;;;17.82;50.72
28630;BME280;15817;42.130;24.762;2022-09-21T07:44:36;99953.78;;;17.71;50.60
28630;BME280;15817;42.130;24.762;2022-09-21T07:47:02;99961.44;;;17.83;49.85
28630;BME280;15817;42.130;24.762;2022-09-21T07:49:30;99955.59;;;17.70;49.26
28630;BME280;15817;42.130;24.762;2022-09-21T07:51:58;99964.03;;;17.86;49.26
28630;BME280;15817;42.130;24.762;2022-09-21T07:54:27;99953.16;;;18.14;48.45
28630;BME280;15817;42.130;24.762;2022-09-21T07:56:56;99949.41;;;18.44;48.35
28630;BME280;15817;42.130;24.762;2022-09-21T07:59:40;99949.25;;;18.72;47.09
28630;BME280;15817;42.130;24.762;2022-09-21T08:02:06;99951.84;;;18.75;46.93
28630;BME280;15817;42.130;24.762;2022-09-21T08:04:32;99949.97;;;18.77;46.53
28630;BME280;15817;42.130;24.762;2022-09-21T08:06:57;99940.75;;;18.83;46.44
28630;BME280;15817;42.130;24.762;2022-09-21T08:09:26;99940.19;;;18.75;47.80
28630;BME280;15817;42.130;24.762;2022-09-21T08:12:12;99928.47;;;18.76;47.35
28630;BME280;15817;42.130;24.762;2022-09-21T08:14:47;99926.25;;;18.87;46.27
28630;BME280;15817;42.130;24.762;2022-09-21T08:17:18;99921.81;;;19.08;46.06
28630;BME280;15817;42.130;24.762;2022-09-21T08:19:49;99907.06;;;19.38;45.83
28630;BME280;15817;42.130;24.762;2022-09-21T08:22:18;99913.56;;;19.56;44.95
28630;BME280;15817;42.130;24.762;2022-09-21T08:24:49;99915.25;;;19.80;43.64
28630;BME280;15817;42.130;24.762;2022-09-21T08:27:17;99915.44;;;19.96;42.80
28630;BME280;15817;42.130;24.762;2022-09-21T08:29:44;99912.75;;;20.16;42.46
28630;BME280;15817;42.130;24.762;2022-09-21T08:32:13;99908.19;;;20.18;42.29
28630;BME280;15817;42.130;24.762;2022-09-21T08:34:39;99907.47;;;20.34;41.48
28630;BME280;15817;42.130;24.762;2022-09-21T08:37:05;99904.03;;;20.50;41.70
28630;BME280;15817;42.130;24.762;2022-09-21T08:39:31;99889.84;;;20.45;41.75
28630;BME280;15817;42.130;24.762;2022-09-21T08:42:12;99897.75;;;20.50;41.24
28630;BME280;15817;42.130;24.762;2022-09-21T08:44:47;99902.03;;;20.15;41.50
28630;BME280;15817;42.130;24.762;2022-09-21T08:49:57;99901.81;;;21.88;45.12
28630;BME280;15817;42.130;24.762;2022-09-21T08:52:25;99897.72;;;22.31;41.58
28630;BME280;15817;42.130;24.762;2022-09-21T08:54:58;99884.84;;;22.52;37.98
28630;BME280;15817;42.130;24.762;2022-09-21T08:57:28;99878.75;;;22.64;37.34
28630;BME280;15817;42.130;24.762;2022-09-21T09:00:16;99885.22;;;23.26;41.99
28630;BME280;15817;42.130;24.762;2022-09-21T09:06:01;99881.63;;;23.10;38.56
28630;BME280;15817;42.130;24.762;2022-09-21T09:15:18;99865.59;;;23.21;36.63
28630;BME280;15817;42.130;24.762;2022-09-21T09:21:48;99844.72;;;23.07;34.87
28630;BME280;15817;42.130;24.762;2022-09-21T09:26:56;99846.97;;;22.35;40.06
28630;BME280;15817;42.130;24.762;2022-09-21T09:30:19;99850.66;;;22.83;37.62
28630;BME280;15817;42.130;24.762;2022-09-21T09:32:27;99841.81;;;23.10;39.30
28630;BME280;15817;42.130;24.762;2022-09-21T09:35:04;99836.09;;;23.31;37.91
28630;BME280;15817;42.130;24.762;2022-09-21T09:37:35;99835.78;;;22.90;37.88
28630;BME280;15817;42.130;24.762;2022-09-21T09:40:04;99843.66;;;22.79;35.52
28630;BME280;15817;42.130;24.762;2022-09-21T09:45:11;99839.81;;;23.75;33.99
28630;BME280;15817;42.130;24.762;2022-09-21T09:50:12;99831.03;;;24.14;32.46
28630;BME280;15817;42.130;24.762;2022-09-21T09:52:45;99827.31;;;23.57;32.92
28630;BME280;15817;42.130;24.762;2022-09-21T09:58:03;99829.84;;;22.83;34.21
28630;BME280;15817;42.130;24.762;2022-09-21T10:00:29;99824.97;;;22.57;34.46
28630;BME280;15817;42.130;24.762;2022-09-21T10:02:56;99828.72;;;22.54;34.81
28630;BME280;15817;42.130;24.762;2022-09-21T10:05:34;99822.13;;;22.43;35.36
28630;BME280;15817;42.130;24.762;2022-09-21T10:08:02;99818.66;;;22.56;35.72
28630;BME280;15817;42.130;24.762;2022-09-21T10:13:05;99814.78;;;22.93;34.78
28630;BME280;15817;42.130;24.762;2022-09-21T10:15:31;99810.34;;;22.75;34.93
28630;BME280;15817;42.130;24.762;2022-09-21T10:20:56;99811.69;;;22.19;36.10
28630;BME280;15817;42.130;24.762;2022-09-21T10:23:27;99810.75;;;21.86;35.66
28630;BME280;15817;42.130;24.762;2022-09-21T10:26:12;99805.81;;;21.59;36.21
28630;BME280;15817;42.130;24.762;2022-09-21T10:28:59;99803.75;;;21.47;36.56
28630;BME280;15817;42.130;24.762;2022-09-21T10:31:29;99797.25;;;21.34;36.68
28630;BME280;15817;42.130;24.762;2022-09-21T10:34:14;99804.47;;;21.34;37.08
28630;BME280;15817;42.130;24.762;2022-09-21T10:36:52;99791.56;;;21.39;36.19
28630;BME280;15817;42.130;24.762;2022-09-21T10:39:22;99782.22;;;21.46;35.93
28630;BME280;15817;42.130;24.762;2022-09-21T10:48:20;99790.31;;;21.46;36.16
28630;BME280;15817;42.130;24.762;2022-09-21T10:50:50;99780.59;;;21.59;35.31
28630;BME280;15817;42.130;24.762;2022-09-21T10:57:06;99795.88;;;21.43;35.78
28630;BME280;15817;42.130;24.762;2022-09-21T10:59:35;99786.56;;;21.48;35.95
28630;BME280;15817;42.130;24.762;2022-09-21T11:02:32;99778.38;;;21.50;36.56
28630;BME280;15817;42.130;24.762;2022-09-21T11:07:46;99782.34;;;21.60;35.60
28630;BME280;15817;42.130;24.762;2022-09-21T11:15:42;99771.22;;;21.66;35.72
28630;BME280;15817;42.130;24.762;2022-09-21T11:21:33;99778.59;;;21.62;35.64
28630;BME280;15817;42.130;24.762;2022-09-21T11:24:09;99778.38;;;21.50;35.80
28630;BME280;15817;42.130;24.762;2022-09-21T11:26:44;99766.84;;;21.29;36.07
28630;BME280;15817;42.130;24.762;2022-09-21T11:29:20;99775.69;;;21.14;36.44
28630;BME280;15817;42.130;24.762;2022-09-21T11:32:06;99770.75;;;21.05;36.52
28630;BME280;15817;42.130;24.762;2022-09-21T11:37:49;99760.31;;;21.14;37.28
28630;BME280;15817;42.130;24.762;2022-09-21T11:40:36;99763.44;;;21.07;37.20
28630;BME280;15817;42.130;24.762;2022-09-21T11:54:53;99763.16;;;21.64;36.18
28630;BME280;15817;42.130;24.762;2022-09-21T11:57:26;99743.09;;;21.51;35.96
28630;BME280;15817;42.130;24.762;2022-09-21T12:00:20;99745.69;;;21.70;36.30
28630;BME280;15817;42.130;24.762;2022-09-21T12:22:27;99746.13;;;21.28;36.05
28630;BME280;15817;42.130;24.762;2022-09-21T12:25:24;99741.56;;;21.11;36.25
28630;BME280;15817;42.130;24.762;2022-09-21T12:28:15;99746.09;;;21.11;36.69
28630;BME280;15817;42.130;24.762;2022-09-21T12:30:46;99739.31;;;21.02;36.42
28630;BME280;15817;42.130;24.762;2022-09-21T12:33:38;99745.53;;;21.04;36.59
28630;BME280;15817;42.130;24.762;2022-09-21T12:36:12;99741.38;;;20.97;36.16
28630;BME280;15817;42.130;24.762;2022-09-21T12:38:49;99742.97;;;21.01;36.08
28630;BME280;15817;42.130;24.762;2022-09-21T12:44:14;99741.47;;;20.95;37.15
28630;BME280;15817;42.130;24.762;2022-09-21T12:47:02;99736.28;;;20.91;36.87
28630;BME280;15817;42.130;24.762;2022-09-21T12:49:38;99738.97;;;20.91;37.62
28630;BME280;15817;42.130;24.762;2022-09-21T12:52:07;99733.81;;;20.86;37.69
28630;BME280;15817;42.130;24.762;2022-09-21T12:54:50;99737.16;;;20.91;37.66
28630;BME280;15817;42.130;24.762;2022-09-21T12:57:35;99742.34;;;20.96;37.56
28630;BME280;15817;42.130;24.762;2022-09-21T13:00:17;99739.38;;;21.01;37.59
28630;BME280;15817;42.130;24.762;2022-09-21T13:08:18;99735.97;;;20.97;37.36
28630;BME280;15817;42.130;24.762;2022-09-21T13:11:00;99734.69;;;20.87;37.76
28630;BME280;15817;42.130;24.762;2022-09-21T13:13:48;99742.00;;;20.85;37.73
28630;BME280;15817;42.130;24.762;2022-09-21T13:16:31;99736.00;;;20.78;37.70
28630;BME280;15817;42.130;24.762;2022-09-21T13:21:28;99725.31;;;20.77;37.51
28630;BME280;15817;42.130;24.762;2022-09-21T13:23:59;99731.72;;;20.74;38.23
28630;BME280;15817;42.130;24.762;2022-09-21T13:26:36;99728.84;;;20.77;38.18
28630;BME280;15817;42.130;24.762;2022-09-21T13:34:24;99736.94;;;20.60;39.42
28630;BME280;15817;42.130;24.762;2022-09-21T13:44:53;99716.47;;;20.54;39.07
28630;BME280;15817;42.130;24.762;2022-09-21T13:47:28;99726.13;;;20.60;38.91
28630;BME280;15817;42.130;24.762;2022-09-21T13:49:55;99721.81;;;20.56;38.32
28630;BME280;15817;42.130;24.762;2022-09-21T13:52:53;99714.38;;;20.61;38.07
28630;BME280;15817;42.130;24.762;2022-09-21T13:55:32;99715.25;;;20.62;37.53
28630;BME280;15817;42.130;24.762;2022-09-21T13:58:02;99720.84;;;20.57;36.91
28630;BME280;15817;42.130;24.762;2022-09-21T14:00:33;99717.47;;;20.53;37.07
28630;BME280;15817;42.130;24.762;2022-09-21T14:03:21;99726.84;;;20.64;37.09
28630;BME280;15817;42.130;24.762;2022-09-21T14:05:58;99718.09;;;20.58;37.34
28630;BME280;15817;42.130;24.762;2022-09-21T14:08:37;99716.56;;;20.53;37.24
28630;BME280;15817;42.130;24.762;2022-09-21T14:11:14;99714.81;;;20.52;37.35
28630;BME280;15817;42.130;24.762;2022-09-21T14:13:46;99713.78;;;20.54;37.63
28630;BME280;15817;42.130;24.762;2022-09-21T14:24:48;99715.56;;;20.37;38.74
28630;BME280;15817;42.130;24.762;2022-09-21T14:27:35;99722.72;;;20.38;38.90
28630;BME280;15817;42.130;24.762;2022-09-21T14:30:24;99716.44;;;20.37;38.83
28630;BME280;15817;42.130;24.762;2022-09-21T14:33:05;99726.88;;;20.45;39.73
28630;BME280;15817;42.130;24.762;2022-09-21T14:35:37;99719.88;;;20.41;38.30
28630;BME280;15817;42.130;24.762;2022-09-21T14:38:18;99726.06;;;20.43;37.23
28630;BME280;15817;42.130;24.762;2022-09-21T14:40:48;99725.50;;;20.36;37.44
28630;BME280;15817;42.130;24.762;2022-09-21T14:43:20;99727.31;;;20.36;37.93
28630;BME280;15817;42.130;24.762;2022-09-21T14:46:02;99722.31;;;20.27;37.64
28630;BME280;15817;42.130;24.762;2022-09-21T14:52:02;99730.34;;;20.09;39.17
28630;BME280;15817;42.130;24.762;2022-09-21T15:11:54;99749.41;;;19.86;41.97
28630;BME280;15817;42.130;24.762;2022-09-21T15:15:02;99764.63;;;19.68;41.80
28630;BME280;15817;42.130;24.762;2022-09-21T15:17:30;99754.41;;;19.56;41.49
28630;BME280;15817;42.130;24.762;2022-09-21T15:19:57;99769.41;;;19.62;41.93
28630;BME280;15817;42.130;24.762;2022-09-21T15:22:29;99763.25;;;19.60;41.79
28630;BME280;15817;42.130;24.762;2022-09-21T15:25:22;99766.88;;;19.59;41.90
28630;BME280;15817;42.130;24.762;2022-09-21T15:27:55;99780.22;;;19.62;41.60
28630;BME280;15817;42.130;24.762;2022-09-21T15:30:28;99779.25;;;19.63;41.67
28630;BME280;15817;42.130;24.762;2022-09-21T15:33:03;99776.44;;;19.66;41.62
28630;BME280;15817;42.130;24.762;2022-09-21T15:35:42;99782.78;;;19.65;41.63
28630;BME280;15817;42.130;24.762;2022-09-21T15:38:29;99791.81;;;19.64;41.54
28630;BME280;15817;42.130;24.762;2022-09-21T15:40:56;99795.09;;;19.50;41.28
28630;BME280;15817;42.130;24.762;2022-09-21T15:47:12;99789.28;;;19.39;40.63
28630;BME280;15817;42.130;24.762;2022-09-21T16:12:40;99799.81;;;19.25;42.19
28630;BME280;15817;42.130;24.762;2022-09-21T16:18:09;99808.06;;;19.20;42.35
28630;BME280;15817;42.130;24.762;2022-09-21T16:30:03;99814.03;;;19.06;43.81
28630;BME280;15817;42.130;24.762;2022-09-21T16:32:31;99814.91;;;19.07;43.82
28630;BME280;15817;42.130;24.762;2022-09-21T16:35:26;99821.13;;;19.09;44.19
28630;BME280;15817;42.130;24.762;2022-09-21T16:38:24;99812.97;;;19.10;44.10
28630;BME280;15817;42.130;24.762;2022-09-21T16:40:53;99824.88;;;19.05;43.94
28630;BME280;15817;42.130;24.762;2022-09-21T16:43:21;99825.09;;;19.00;44.05
28630;BME280;15817;42.130;24.762;2022-09-21T16:50:44;99838.63;;;18.99;44.31
28630;BME280;15817;42.130;24.762;2022-09-21T16:56:11;99850.66;;;18.90;47.81
28630;BME280;15817;42.130;24.762;2022-09-21T17:02:17;99863.13;;;18.69;53.12
28630;BME280;15817;42.130;24.762;2022-09-21T17:19:30;99892.00;;;18.42;55.42
28630;BME280;15817;42.130;24.762;2022-09-21T17:22:26;99883.09;;;18.40;55.07
28630;BME280;15817;42.130;24.762;2022-09-21T17:24:55;99892.00;;;18.42;54.89
28630;BME280;15817;42.130;24.762;2022-09-21T17:27:22;99897.97;;;18.51;55.80
28630;BME280;15817;42.130;24.762;2022-09-21T17:29:49;99905.38;;;18.45;56.77
28630;BME280;15817;42.130;24.762;2022-09-21T17:32:19;99897.34;;;18.44;58.32